createdAt,value
2023-08-27T00:01:19.622Z,59.70
2023-08-27T00:03:46.778Z,60.51
2023-08-27T00:06:13.870Z,60.38
2023-08-27T00:08:40.871Z,58.84
2023-08-27T00:11:07.846Z,58.39
2023-08-27T00:13:34.959Z,58.26
2023-08-27T00:16:02.025Z,58.50
2023-08-27T00:18:29.171Z,59.24
2023-08-27T00:20:57.339Z,60.39
2023-08-27T00:23:24.844Z,60.50
2023-08-27T00:25:52.050Z,59.24
2023-08-27T00:28:19.002Z,59.04
2023-08-27T00:30:46.178Z,59.52
2023-08-27T00:33:13.258Z,60.02
2023-08-27T00:35:40.332Z,60.36
2023-08-27T00:38:07.584Z,61.27
2023-08-27T00:40:35.695Z,61.33
2023-08-27T00:43:03.767Z,59.97
2023-08-27T00:45:31.525Z,59.34
2023-08-27T00:47:58.757Z,59.67
2023-08-27T00:50:26.866Z,60.22
2023-08-27T00:52:54.477Z,60.57
2023-08-27T00:55:21.511Z,61.64
2023-08-27T00:57:48.513Z,61.40
2023-08-27T01:00:15.761Z,59.94
2023-08-27T01:02:43.976Z,59.16
2023-08-27T01:05:13.449Z,59.17
2023-08-27T01:08:21.821Z,60.16
2023-08-27T01:11:06.494Z,61.01
2023-08-27T01:13:48.867Z,62.40
2023-08-27T01:16:15.936Z,61.23
2023-08-27T01:18:42.988Z,59.73
2023-08-27T01:21:20.202Z,59.32
2023-08-27T01:23:47.250Z,59.79
2023-08-27T01:26:18.871Z,59.95
2023-08-27T01:28:47.394Z,61.27
2023-08-27T01:31:18.610Z,61.68
2023-08-27T01:33:46.423Z,61.65
2023-08-27T01:36:13.515Z,60.19
2023-08-27T01:38:40.901Z,59.98
2023-08-27T01:41:08.034Z,60.32
2023-08-27T01:43:35.147Z,60.76
2023-08-27T01:46:02.140Z,61.46
2023-08-27T01:48:29.453Z,62.24
2023-08-27T01:50:56.500Z,62.17
2023-08-27T01:53:23.573Z,60.79
2023-08-27T01:55:50.510Z,60.35
2023-08-27T01:58:17.558Z,60.74
2023-08-27T02:00:44.712Z,61.23
2023-08-27T02:03:11.759Z,61.96
2023-08-27T02:05:38.870Z,62.79
2023-08-27T02:08:06.186Z,62.37
2023-08-27T02:10:33.218Z,60.83
2023-08-27T02:13:00.463Z,60.36
2023-08-27T02:15:27.652Z,60.48
2023-08-27T02:17:54.639Z,60.82
2023-08-27T02:20:21.658Z,61.20
2023-08-27T02:22:48.763Z,62.17
2023-08-27T02:25:15.844Z,61.84
2023-08-27T02:27:42.823Z,60.40
2023-08-27T02:30:10.515Z,59.88
2023-08-27T02:32:37.703Z,60.25
2023-08-27T02:35:05.313Z,60.68
2023-08-27T02:37:32.372Z,61.34
2023-08-27T02:39:59.398Z,62.23
2023-08-27T02:42:26.402Z,61.97
2023-08-27T02:44:53.491Z,60.54
2023-08-27T02:47:20.568Z,59.89
2023-08-27T02:49:47.597Z,60.09
2023-08-27T02:52:16.019Z,60.71
2023-08-27T02:54:42.981Z,61.57
2023-08-27T02:57:10.218Z,62.50
2023-08-27T02:59:37.309Z,62.14
2023-08-27T03:02:04.552Z,60.46
2023-08-27T03:04:31.842Z,60.15
2023-08-27T03:06:58.908Z,60.48
2023-08-27T03:09:26.031Z,61.01
2023-08-27T03:11:52.966Z,61.68
2023-08-27T03:14:22.385Z,62.72
2023-08-27T03:16:49.442Z,62.42
2023-08-27T03:19:16.442Z,61.19
2023-08-27T03:21:43.543Z,60.72
2023-08-27T03:24:13.030Z,60.96
2023-08-27T03:26:40.080Z,61.19
2023-08-27T03:29:07.150Z,62.10
2023-08-27T03:31:34.411Z,62.96
2023-08-27T03:34:01.560Z,62.67
2023-08-27T03:36:29.534Z,61.20
2023-08-27T03:38:56.634Z,60.69
2023-08-27T03:41:23.769Z,60.98
2023-08-27T03:43:50.827Z,61.66
2023-08-27T03:46:17.913Z,62.44
2023-08-27T03:48:44.921Z,63.21
2023-08-27T03:51:14.208Z,62.97
2023-08-27T03:53:41.257Z,61.24
2023-08-27T03:56:08.238Z,60.84
2023-08-27T03:58:35.392Z,61.08
2023-08-27T04:01:02.492Z,61.54
2023-08-27T04:03:30.175Z,62.27
2023-08-27T04:05:57.520Z,63.07
2023-08-27T04:08:24.627Z,62.54
2023-08-27T04:10:57.562Z,60.53
2023-08-27T04:13:24.681Z,60.33
2023-08-27T04:16:01.807Z,60.47
2023-08-27T04:18:30.531Z,61.01
2023-08-27T04:20:57.473Z,61.48
2023-08-27T04:23:26.250Z,62.30
2023-08-27T04:25:53.458Z,61.81
2023-08-27T04:28:20.524Z,60.25
2023-08-27T04:30:51.572Z,59.59
2023-08-27T04:33:18.521Z,60.05
2023-08-27T04:35:53.851Z,60.54
2023-08-27T04:38:21.854Z,61.04
2023-08-27T04:40:53.103Z,61.28
2023-08-27T04:43:20.658Z,62.34
2023-08-27T04:45:47.775Z,61.35
2023-08-27T04:48:16.095Z,60.14
2023-08-27T04:50:47.188Z,60.06
2023-08-27T04:53:14.307Z,60.57
2023-08-27T04:55:41.672Z,60.54
2023-08-27T04:58:09.838Z,61.31
2023-08-27T05:00:38.202Z,62.00
2023-08-27T05:03:05.559Z,61.40
2023-08-27T05:05:32.673Z,59.94
2023-08-27T05:08:00.008Z,58.72
2023-08-27T05:10:27.368Z,57.84
2023-08-27T05:12:55.412Z,57.41
2023-08-27T05:15:22.598Z,58.94
2023-08-27T05:17:50.092Z,59.21
2023-08-27T05:20:17.230Z,58.43
2023-08-27T05:22:44.297Z,56.31
2023-08-27T05:25:11.509Z,55.98
2023-08-27T05:27:45.191Z,56.34
2023-08-27T05:30:15.406Z,56.92
2023-08-27T05:32:44.673Z,57.14
2023-08-27T05:35:11.999Z,57.98
2023-08-27T05:37:39.247Z,58.17
2023-08-27T05:40:07.506Z,58.67
2023-08-27T05:42:36.035Z,58.17
2023-08-27T05:45:04.579Z,56.40
2023-08-27T05:47:32.373Z,56.51
2023-08-27T05:49:59.901Z,56.57
2023-08-27T05:52:27.555Z,56.85
2023-08-27T05:54:55.504Z,57.23
2023-08-27T05:57:23.239Z,57.62
2023-08-27T05:59:50.277Z,56.32
2023-08-27T06:02:18.766Z,53.14
2023-08-27T06:04:46.089Z,50.56
2023-08-27T06:07:13.391Z,48.85
2023-08-27T06:09:40.439Z,49.65
2023-08-27T06:12:07.996Z,50.05
2023-08-27T06:14:35.442Z,51.05
2023-08-27T06:17:02.557Z,51.14
2023-08-27T06:19:42.951Z,50.61
2023-08-27T06:22:15.185Z,50.81
2023-08-27T06:24:42.250Z,51.29
2023-08-27T06:27:09.449Z,52.31
2023-08-27T06:29:37.057Z,51.49
2023-08-27T06:32:04.312Z,52.76
2023-08-27T06:34:33.962Z,51.66
2023-08-27T06:37:00.995Z,50.56
2023-08-27T06:39:28.467Z,50.49
2023-08-27T06:41:55.529Z,49.11
2023-08-27T06:44:23.075Z,49.47
2023-08-27T06:46:54.301Z,50.70
2023-08-27T06:49:21.328Z,49.23
2023-08-27T06:51:48.360Z,49.97
2023-08-27T06:54:15.488Z,49.04
2023-08-27T06:56:42.531Z,50.11
2023-08-27T06:59:11.812Z,49.59
2023-08-27T07:01:40.893Z,47.68
2023-08-27T07:04:08.319Z,46.67
2023-08-27T07:06:35.533Z,47.39
2023-08-27T07:09:02.840Z,45.83
2023-08-27T07:11:30.162Z,46.56
2023-08-27T07:13:57.405Z,46.77
2023-08-27T07:16:24.511Z,46.61
2023-08-27T07:18:51.814Z,45.56
2023-08-27T07:21:19.118Z,46.33
2023-08-27T07:23:46.225Z,46.83
2023-08-27T07:26:13.334Z,45.79
2023-08-27T07:28:40.483Z,45.10
2023-08-27T07:31:07.520Z,46.37
2023-08-27T07:33:36.097Z,44.37
2023-08-27T07:36:03.646Z,44.49
2023-08-27T07:38:30.978Z,44.20
2023-08-27T07:40:58.031Z,43.58
2023-08-27T07:43:25.662Z,43.75
2023-08-27T07:45:52.630Z,45.00
2023-08-27T07:48:19.837Z,45.61
2023-08-27T07:50:48.459Z,44.99
2023-08-27T07:53:15.472Z,44.29
2023-08-27T07:55:42.475Z,43.74
2023-08-27T07:58:09.962Z,44.19
2023-08-27T08:00:38.405Z,43.20
2023-08-27T08:03:05.903Z,44.68
2023-08-27T08:05:33.127Z,44.54
2023-08-27T08:08:00.419Z,42.52
2023-08-27T08:10:27.660Z,42.08
2023-08-27T08:12:54.863Z,43.20
2023-08-27T08:15:22.061Z,42.58
2023-08-27T08:17:49.337Z,43.08
2023-08-27T08:20:16.519Z,44.52
2023-08-27T08:22:43.577Z,44.05
2023-08-27T08:25:10.543Z,43.88
2023-08-27T08:27:37.596Z,42.99
2023-08-27T08:30:05.591Z,41.43
2023-08-27T08:32:34.486Z,39.73
2023-08-27T08:35:02.547Z,42.91
2023-08-27T08:37:29.705Z,42.22
2023-08-27T08:39:56.781Z,42.13
2023-08-27T08:42:33.390Z,43.04
2023-08-27T08:45:14.841Z,41.96
2023-08-27T08:47:42.008Z,42.17
2023-08-27T08:50:09.562Z,41.26
2023-08-27T08:52:40.628Z,40.69
2023-08-27T08:55:09.034Z,40.00
2023-08-27T08:57:37.699Z,41.84
2023-08-27T09:00:05.021Z,41.16
2023-08-27T09:02:32.297Z,40.51
2023-08-27T09:04:59.351Z,37.99
2023-08-27T09:07:26.275Z,39.49
2023-08-27T09:09:53.339Z,38.89
2023-08-27T09:13:23.624Z,38.21
2023-08-27T09:15:50.987Z,39.66
2023-08-27T09:18:18.350Z,39.93
2023-08-27T09:20:45.405Z,39.68
2023-08-27T09:23:13.390Z,38.34
2023-08-27T09:25:42.762Z,40.22
2023-08-27T09:28:09.882Z,39.32
2023-08-27T09:30:36.908Z,40.18
2023-08-27T09:33:04.951Z,39.64
2023-08-27T09:35:39.165Z,38.88
2023-08-27T09:38:06.584Z,40.08
2023-08-27T09:40:33.692Z,39.73
2023-08-27T09:43:07.726Z,40.82
2023-08-27T09:45:35.571Z,39.65
2023-08-27T09:48:04.136Z,40.18
2023-08-27T09:50:32.434Z,40.38
2023-08-27T09:53:11.643Z,39.61
2023-08-27T09:55:38.677Z,39.71
2023-08-27T09:58:05.867Z,40.54
2023-08-27T10:00:33.687Z,41.88
2023-08-27T10:03:00.745Z,40.64
2023-08-27T10:05:29.805Z,40.90
2023-08-27T10:07:59.032Z,40.42
2023-08-27T10:10:28.062Z,40.57
2023-08-27T10:12:55.900Z,41.51
2023-08-27T10:15:24.338Z,41.29
2023-08-27T10:17:53.387Z,41.65
2023-08-27T10:20:21.075Z,40.15
2023-08-27T10:22:48.330Z,41.35
2023-08-27T10:25:19.002Z,39.60
2023-08-27T10:27:48.537Z,39.86
2023-08-27T10:30:17.082Z,39.81
2023-08-27T10:32:45.803Z,39.92
2023-08-27T10:35:12.871Z,39.85
2023-08-27T10:37:44.775Z,40.98
2023-08-27T10:40:13.543Z,40.95
2023-08-27T10:42:41.018Z,40.37
2023-08-27T10:45:13.078Z,40.54
2023-08-27T10:47:40.686Z,41.53
2023-08-27T10:50:08.298Z,43.47
2023-08-27T10:52:51.330Z,41.21
2023-08-27T10:55:22.376Z,41.05
2023-08-27T10:57:49.559Z,39.65
2023-08-27T11:00:16.827Z,39.83
2023-08-27T11:02:58.906Z,39.56
2023-08-27T11:05:28.088Z,40.59
2023-08-27T11:07:59.912Z,40.87
2023-08-27T11:10:32.266Z,41.51
2023-08-27T11:12:59.674Z,40.58
2023-08-27T11:15:33.042Z,41.14
2023-08-27T11:18:01.502Z,40.47
2023-08-27T11:20:29.128Z,40.24
2023-08-27T11:23:03.503Z,39.41
2023-08-27T11:25:31.550Z,39.47
2023-08-27T11:28:02.485Z,38.62
2023-08-27T11:30:31.262Z,38.57
2023-08-27T11:32:58.684Z,38.07
2023-08-27T11:35:28.809Z,39.37
2023-08-27T11:37:56.225Z,38.79
2023-08-27T11:40:28.228Z,38.54
2023-08-27T11:42:56.862Z,38.45
2023-08-27T11:45:36.244Z,39.03
2023-08-27T11:48:05.117Z,38.34
2023-08-27T11:50:34.190Z,38.74
2023-08-27T11:53:02.623Z,37.68
2023-08-27T11:55:29.958Z,38.65
2023-08-27T11:57:56.994Z,37.19
2023-08-27T12:00:24.064Z,35.83
2023-08-27T12:02:51.247Z,36.38
2023-08-27T12:05:18.697Z,35.99
2023-08-27T12:07:45.667Z,35.68
2023-08-27T12:10:15.003Z,35.01
2023-08-27T12:12:42.891Z,34.18
2023-08-27T12:15:10.301Z,33.95
2023-08-27T12:17:37.841Z,35.25
2023-08-27T12:20:07.013Z,35.00
2023-08-27T12:22:44.514Z,35.23
2023-08-27T12:25:13.331Z,33.26
2023-08-27T12:27:43.677Z,35.15
2023-08-27T12:30:14.391Z,32.74
2023-08-27T12:32:41.616Z,31.81
2023-08-27T12:35:09.179Z,32.44
2023-08-27T12:37:36.301Z,32.07
2023-08-27T12:40:03.883Z,31.99
2023-08-27T12:42:31.137Z,34.59
2023-08-27T12:44:58.212Z,34.80
2023-08-27T12:47:25.219Z,32.31
2023-08-27T12:49:52.431Z,32.82
2023-08-27T12:52:20.708Z,34.17
2023-08-27T12:54:48.442Z,33.70
2023-08-27T12:57:15.422Z,33.72
2023-08-27T12:59:42.512Z,33.24
2023-08-27T13:02:10.714Z,33.93
2023-08-27T13:04:37.969Z,34.37
2023-08-27T13:07:04.969Z,34.86
2023-08-27T13:09:32.145Z,33.60
2023-08-27T13:11:59.972Z,34.31
2023-08-27T13:14:26.946Z,35.18
2023-08-27T13:16:54.013Z,34.03
2023-08-27T13:19:21.114Z,34.17
2023-08-27T13:21:48.373Z,34.34
2023-08-27T13:24:15.480Z,34.47
2023-08-27T13:26:42.550Z,33.93
2023-08-27T13:29:09.675Z,34.62
2023-08-27T13:31:36.816Z,35.35
2023-08-27T13:34:04.422Z,36.20
2023-08-27T13:36:31.917Z,34.22
2023-08-27T13:38:59.902Z,34.63
2023-08-27T13:41:27.099Z,34.09
2023-08-27T13:43:54.076Z,32.15
2023-08-27T13:46:21.684Z,31.90
2023-08-27T13:48:48.843Z,31.32
2023-08-27T13:51:16.742Z,31.55
2023-08-27T13:53:43.898Z,32.80
2023-08-27T13:56:11.026Z,32.66
2023-08-27T13:58:39.009Z,32.82
2023-08-27T14:01:06.979Z,32.24
2023-08-27T14:03:34.373Z,31.80
2023-08-27T14:06:01.583Z,31.27
2023-08-27T14:08:30.152Z,29.44
2023-08-27T14:10:57.697Z,31.01
2023-08-27T14:13:24.768Z,30.71
2023-08-27T14:15:52.104Z,31.17
2023-08-27T14:18:19.800Z,32.47
2023-08-27T14:20:47.214Z,32.33
2023-08-27T14:23:14.318Z,31.87
2023-08-27T14:25:41.905Z,31.95
2023-08-27T14:28:08.995Z,31.83
2023-08-27T14:30:36.551Z,32.10
2023-08-27T14:33:04.112Z,32.43
2023-08-27T14:35:31.318Z,32.29
2023-08-27T14:37:58.357Z,32.22
2023-08-27T14:40:25.325Z,32.91
2023-08-27T14:42:52.403Z,32.40
2023-08-27T14:45:19.399Z,33.20
2023-08-27T14:47:46.519Z,33.18
2023-08-27T14:50:18.712Z,32.62
2023-08-27T14:52:47.126Z,32.44
2023-08-27T14:55:14.188Z,32.67
2023-08-27T14:57:41.287Z,33.28
2023-08-27T15:00:09.801Z,34.12
2023-08-27T15:02:37.261Z,33.79
2023-08-27T15:05:04.752Z,33.65
2023-08-27T15:07:31.875Z,33.87
2023-08-27T15:09:59.248Z,33.53
2023-08-27T15:12:26.237Z,33.54
2023-08-27T15:14:53.285Z,33.57
2023-08-27T15:17:20.933Z,34.25
2023-08-27T15:19:48.578Z,34.46
2023-08-27T15:22:15.701Z,34.60
2023-08-27T15:24:42.936Z,34.32
2023-08-27T15:27:09.917Z,34.18
2023-08-27T15:29:36.884Z,34.28
2023-08-27T15:32:05.785Z,34.73
2023-08-27T15:34:32.906Z,35.03
2023-08-27T15:36:59.908Z,35.48
2023-08-27T15:39:26.949Z,35.80
2023-08-27T15:41:54.054Z,35.84
2023-08-27T15:44:21.141Z,36.08
2023-08-27T15:46:48.372Z,36.34
2023-08-27T15:49:15.380Z,37.22
2023-08-27T15:51:42.340Z,38.22
2023-08-27T15:54:09.405Z,38.95
2023-08-27T15:56:36.926Z,39.23
2023-08-27T15:59:04.083Z,40.10
2023-08-27T16:01:31.233Z,40.15
2023-08-27T16:03:58.312Z,40.69
2023-08-27T16:06:25.573Z,40.15
2023-08-27T16:08:55.116Z,40.69
2023-08-27T16:11:23.105Z,41.30
2023-08-27T16:13:50.205Z,41.23
2023-08-27T16:16:17.283Z,41.60
2023-08-27T16:18:44.464Z,41.05
2023-08-27T16:21:13.447Z,41.68
2023-08-27T16:23:40.616Z,41.84
2023-08-27T16:26:07.962Z,42.25
2023-08-27T16:28:35.035Z,42.36
2023-08-27T16:31:02.226Z,42.48
2023-08-27T16:33:29.680Z,43.25
2023-08-27T16:35:56.689Z,44.32
2023-08-27T16:38:23.814Z,44.75
2023-08-27T16:40:50.939Z,45.58
2023-08-27T16:43:18.014Z,45.25
2023-08-27T16:45:50.912Z,45.62
2023-08-27T16:48:18.044Z,46.29
2023-08-27T16:50:45.128Z,46.89
2023-08-27T16:53:12.131Z,47.56
2023-08-27T16:55:39.299Z,48.35
2023-08-27T16:58:06.864Z,48.53
2023-08-27T17:00:33.944Z,48.75
2023-08-27T17:03:01.144Z,48.91
2023-08-27T17:05:28.400Z,49.24
2023-08-27T17:07:55.508Z,49.76
2023-08-27T17:10:22.701Z,50.16
2023-08-27T17:12:49.762Z,50.54
2023-08-27T17:15:16.889Z,51.00
2023-08-27T17:17:44.007Z,51.43
2023-08-27T17:20:11.441Z,51.69
2023-08-27T17:22:39.305Z,51.46
2023-08-27T17:25:07.152Z,51.81
2023-08-27T17:27:34.504Z,52.38
2023-08-27T17:30:01.927Z,52.64
2023-08-27T17:32:28.971Z,52.99
2023-08-27T17:34:56.000Z,53.22
2023-08-27T17:37:23.008Z,53.27
2023-08-27T17:39:51.305Z,53.83
2023-08-27T17:42:18.416Z,54.32
2023-08-27T17:44:45.468Z,53.92
2023-08-27T17:47:13.039Z,52.48
2023-08-27T17:49:41.796Z,52.15
2023-08-27T17:52:08.844Z,52.21
2023-08-27T17:54:35.859Z,52.71
2023-08-27T17:57:02.960Z,53.34
2023-08-27T17:59:30.400Z,53.75
2023-08-27T18:01:57.485Z,54.05
2023-08-27T18:04:24.877Z,54.65
2023-08-27T18:06:51.888Z,54.82
2023-08-27T18:09:19.106Z,55.21
2023-08-27T18:11:47.311Z,56.03
2023-08-27T18:14:14.341Z,55.26
2023-08-27T18:16:41.373Z,53.70
2023-08-27T18:19:09.733Z,53.24
2023-08-27T18:21:36.946Z,53.31
2023-08-27T18:24:04.203Z,53.67
2023-08-27T18:26:31.291Z,54.25
2023-08-27T18:28:58.442Z,54.67
2023-08-27T18:31:25.459Z,55.15
2023-08-27T18:33:52.545Z,55.65
2023-08-27T18:36:19.554Z,56.66
2023-08-27T18:38:46.652Z,55.69
2023-08-27T18:41:13.710Z,54.38
2023-08-27T18:43:40.683Z,53.79
2023-08-27T18:46:07.778Z,54.06
2023-08-27T18:48:34.906Z,54.64
2023-08-27T18:51:03.234Z,55.00
2023-08-27T18:53:30.298Z,55.77
2023-08-27T18:55:57.367Z,56.50
2023-08-27T18:58:24.435Z,57.05
2023-08-27T19:00:53.886Z,56.66
2023-08-27T19:03:21.165Z,55.08
2023-08-27T19:05:48.338Z,54.71
2023-08-27T19:08:15.411Z,54.94
2023-08-27T19:10:42.480Z,55.31
2023-08-27T19:13:12.320Z,56.17
2023-08-27T19:15:39.377Z,56.60
2023-08-27T19:18:06.555Z,57.12
2023-08-27T19:20:33.816Z,57.82
2023-08-27T19:23:00.829Z,57.24
2023-08-27T19:25:27.994Z,55.90
2023-08-27T19:27:55.343Z,55.40
2023-08-27T19:30:22.434Z,55.80
2023-08-27T19:32:49.773Z,55.97
2023-08-27T19:35:17.066Z,56.48
2023-08-27T19:37:44.218Z,57.07
2023-08-27T19:40:11.845Z,57.54
2023-08-27T19:42:40.836Z,58.43
2023-08-27T19:45:09.218Z,58.06
2023-08-27T19:47:36.404Z,56.15
2023-08-27T19:50:03.574Z,56.14
2023-08-27T19:52:30.947Z,56.34
2023-08-27T19:54:58.111Z,56.83
2023-08-27T19:57:25.218Z,57.45
2023-08-27T19:59:54.066Z,58.13
2023-08-27T20:02:22.395Z,58.99
2023-08-27T20:04:49.529Z,58.53
2023-08-27T20:07:16.633Z,57.10
2023-08-27T20:09:43.682Z,56.86
2023-08-27T20:12:10.791Z,57.13
2023-08-27T20:14:37.773Z,57.71
2023-08-27T20:17:04.819Z,58.11
2023-08-27T20:19:31.749Z,58.39
2023-08-27T20:21:58.746Z,59.20
2023-08-27T20:24:25.761Z,59.01
2023-08-27T20:26:53.089Z,57.47
2023-08-27T20:29:20.078Z,57.30
2023-08-27T20:31:47.136Z,57.38
2023-08-27T20:34:14.205Z,57.71
2023-08-27T20:36:41.356Z,58.31
2023-08-27T20:39:09.737Z,58.50
2023-08-27T20:41:36.931Z,59.42
2023-08-27T20:44:04.831Z,59.04
2023-08-27T20:46:31.925Z,57.52
2023-08-27T20:48:58.994Z,57.15
2023-08-27T20:51:25.962Z,57.12
2023-08-27T20:53:55.032Z,57.82
2023-08-27T20:56:22.296Z,58.13
2023-08-27T20:58:49.299Z,59.02
2023-08-27T21:01:16.355Z,59.85
2023-08-27T21:03:43.387Z,59.47
2023-08-27T21:06:10.406Z,57.92
2023-08-27T21:08:37.424Z,57.50
2023-08-27T21:11:09.345Z,57.59
2023-08-27T21:13:37.092Z,58.29
2023-08-27T21:16:04.380Z,58.94
2023-08-27T21:18:31.628Z,59.83
2023-08-27T21:20:58.640Z,59.69
2023-08-27T21:23:25.788Z,58.38
2023-08-27T21:25:52.895Z,58.10
2023-08-27T21:28:21.852Z,58.14
2023-08-27T21:30:49.331Z,57.70
2023-08-27T21:33:16.477Z,59.14
2023-08-27T21:35:43.641Z,60.00
2023-08-27T21:38:10.794Z,59.73
2023-08-27T21:40:39.856Z,58.44
2023-08-27T21:43:10.544Z,58.28
2023-08-27T21:45:37.822Z,58.56
2023-08-27T21:48:05.386Z,59.21
2023-08-27T21:50:32.616Z,59.12
2023-08-27T21:52:59.802Z,60.22
2023-08-27T21:55:27.064Z,60.04
2023-08-27T21:57:56.373Z,58.82
2023-08-27T22:00:23.779Z,58.62
2023-08-27T22:02:51.924Z,58.91
2023-08-27T22:05:19.216Z,59.23
2023-08-27T22:07:46.259Z,60.14
2023-08-27T22:10:13.570Z,60.90
2023-08-27T22:12:40.706Z,60.36
2023-08-27T22:16:23.670Z,58.88
2023-08-27T22:18:50.770Z,58.08
2023-08-27T22:21:17.797Z,58.08
2023-08-27T22:23:44.812Z,58.94
2023-08-27T22:26:11.800Z,60.18
2023-08-27T22:28:38.893Z,61.05
2023-08-27T22:31:06.112Z,60.64
2023-08-27T22:33:33.770Z,58.90
2023-08-27T22:36:00.749Z,58.06
2023-08-27T22:38:27.771Z,58.78
2023-08-27T22:40:54.778Z,59.46
2023-08-27T22:43:21.819Z,59.43
2023-08-27T22:45:49.562Z,60.62
2023-08-27T22:48:16.596Z,60.76
2023-08-27T22:50:43.680Z,59.00
2023-08-27T22:53:10.723Z,58.69
2023-08-27T22:55:40.952Z,58.59
2023-08-27T22:58:08.047Z,59.46
2023-08-27T23:00:35.129Z,59.58
2023-08-27T23:03:02.601Z,60.80
2023-08-27T23:05:30.373Z,59.88
2023-08-27T23:07:57.401Z,59.38
2023-08-27T23:10:24.506Z,59.20
2023-08-27T23:12:51.522Z,59.15
2023-08-27T23:15:18.489Z,59.84
2023-08-27T23:17:46.472Z,60.27
2023-08-27T23:20:13.511Z,61.49
2023-08-27T23:22:41.507Z,61.26
2023-08-27T23:25:08.889Z,60.07
2023-08-27T23:27:36.129Z,59.64
2023-08-27T23:30:04.275Z,59.78
2023-08-27T23:32:31.815Z,60.55
2023-08-27T23:34:58.920Z,61.28
2023-08-27T23:37:26.726Z,62.23
2023-08-27T23:39:53.765Z,61.74
2023-08-27T23:42:20.777Z,60.18
2023-08-27T23:44:59.332Z,59.52
2023-08-27T23:47:27.910Z,60.04
2023-08-27T23:49:54.946Z,60.65
2023-08-27T23:52:21.940Z,61.15
2023-08-27T23:54:48.962Z,61.03
2023-08-27T23:57:15.975Z,62.23
2023-08-27T23:59:43.049Z,62.04
